createdAt,value
2023-04-22T00:00:09.860Z,51.88
2023-04-22T00:02:38.912Z,51.91
2023-04-22T00:05:07.979Z,51.85
2023-04-22T00:07:36.096Z,51.69
2023-04-22T00:10:04.123Z,51.82
2023-04-22T00:12:34.421Z,51.67
2023-04-22T00:15:02.374Z,51.70
2023-04-22T00:17:30.248Z,51.82
2023-04-22T00:19:58.381Z,51.73
2023-04-22T00:22:26.515Z,51.58
2023-04-22T00:24:54.427Z,51.81
2023-04-22T00:27:22.371Z,51.70
2023-04-22T00:29:51.611Z,51.59
2023-04-22T00:32:19.950Z,51.75
2023-04-22T00:34:47.830Z,51.83
2023-04-22T00:37:15.897Z,51.60
2023-04-22T00:39:43.936Z,51.64
2023-04-22T00:42:11.774Z,51.67
2023-04-22T00:44:39.656Z,51.68
2023-04-22T00:47:09.121Z,51.73
2023-04-22T00:49:37.325Z,51.79
2023-04-22T00:52:05.347Z,51.76
2023-04-22T00:54:33.359Z,51.76
2023-04-22T00:57:02.245Z,51.80
2023-04-22T00:59:30.207Z,51.90
2023-04-22T01:01:58.094Z,51.96
2023-04-22T01:04:27.416Z,51.91
2023-04-22T01:06:55.524Z,52.05
2023-04-22T01:09:23.523Z,51.83
2023-04-22T01:11:51.422Z,51.87
2023-04-22T01:14:19.294Z,51.84
2023-04-22T01:16:47.231Z,51.82
2023-04-22T01:19:15.132Z,52.00
2023-04-22T01:21:45.020Z,52.09
2023-04-22T01:24:14.326Z,51.90
2023-04-22T01:26:42.220Z,52.08
2023-04-22T01:29:10.232Z,51.88
2023-04-22T01:31:38.127Z,51.61
2023-04-22T01:34:06.039Z,51.93
2023-04-22T01:36:34.145Z,51.89
2023-04-22T01:39:02.031Z,52.01
2023-04-22T01:41:31.378Z,51.90
2023-04-22T01:43:59.549Z,51.89
2023-04-22T01:46:27.558Z,51.93
2023-04-22T01:48:55.614Z,51.92
2023-04-22T01:51:23.615Z,51.79
2023-04-22T01:53:51.661Z,51.79
2023-04-22T01:56:19.626Z,51.88
2023-04-22T01:58:48.873Z,51.91
2023-04-22T02:01:16.782Z,51.99
2023-04-22T02:03:44.771Z,51.77
2023-04-22T02:06:12.663Z,51.92
2023-04-22T02:08:40.578Z,52.00
2023-04-22T02:11:08.402Z,51.94
2023-04-22T02:16:32.768Z,51.91
2023-04-22T02:19:00.716Z,51.99
2023-04-22T02:21:29.816Z,52.01
2023-04-22T02:23:57.689Z,52.07
2023-04-22T02:26:26.022Z,51.91
2023-04-22T02:28:53.865Z,51.95
2023-04-22T02:31:21.849Z,52.10
2023-04-22T02:33:51.126Z,51.88
2023-04-22T02:36:18.993Z,51.94
2023-04-22T02:38:47.124Z,51.92
2023-04-22T02:41:15.020Z,52.02
2023-04-22T02:43:46.154Z,51.97
2023-04-22T02:46:16.130Z,51.95
2023-04-22T02:48:44.165Z,51.99
2023-04-22T02:51:13.453Z,52.19
2023-04-22T02:53:41.299Z,52.11
2023-04-22T02:56:09.656Z,52.20
2023-04-22T02:58:37.544Z,52.15
2023-04-22T03:01:05.499Z,52.21
2023-04-22T03:03:33.686Z,52.19
2023-04-22T03:06:01.690Z,52.17
2023-04-22T03:08:30.956Z,52.02
2023-04-22T03:10:58.812Z,52.14
2023-04-22T03:13:26.685Z,52.11
2023-04-22T03:15:54.539Z,52.20
2023-04-22T03:18:22.440Z,52.10
2023-04-22T03:20:50.622Z,52.22
2023-04-22T03:23:18.532Z,52.37
2023-04-22T03:25:47.878Z,52.17
2023-04-22T03:28:15.739Z,52.26
2023-04-22T03:30:43.620Z,52.25
2023-04-22T03:33:12.259Z,52.34
2023-04-22T03:35:40.177Z,52.10
2023-04-22T03:38:08.457Z,52.18
2023-04-22T03:40:36.387Z,52.24
2023-04-22T03:43:05.672Z,52.11
2023-04-22T03:45:33.571Z,52.07
2023-04-22T03:48:01.464Z,52.20
2023-04-22T03:50:29.373Z,52.05
2023-04-22T03:52:57.265Z,51.93
2023-04-22T03:55:25.138Z,52.02
2023-04-22T03:57:53.046Z,52.12
2023-04-22T04:00:22.322Z,52.01
2023-04-22T04:02:50.287Z,52.13
2023-04-22T04:05:18.636Z,52.03
2023-04-22T04:07:46.799Z,51.77
2023-04-22T04:10:14.650Z,51.85
2023-04-22T04:12:42.547Z,52.05
2023-04-22T04:15:10.743Z,52.30
2023-04-22T04:17:40.094Z,52.36
2023-04-22T04:20:08.859Z,52.28
2023-04-22T04:22:37.680Z,52.28
2023-04-22T04:25:06.765Z,52.36
2023-04-22T04:27:35.009Z,52.33
2023-04-22T04:30:04.381Z,52.22
2023-04-22T04:32:34.254Z,52.37
2023-04-22T04:35:03.691Z,52.40
2023-04-22T04:37:31.549Z,52.33
2023-04-22T04:39:59.911Z,52.38
2023-04-22T04:42:27.798Z,52.32
2023-04-22T04:44:58.415Z,52.19
2023-04-22T04:47:26.341Z,52.24
2023-04-22T04:49:54.383Z,52.27
2023-04-22T04:52:23.637Z,52.20
2023-04-22T04:54:51.483Z,52.31
2023-04-22T04:57:19.383Z,52.29
2023-04-22T04:59:47.220Z,52.41
2023-04-22T05:02:15.247Z,52.25
2023-04-22T05:04:43.334Z,52.25
2023-04-22T05:07:11.355Z,52.30
2023-04-22T05:09:40.848Z,52.42
2023-04-22T05:12:08.950Z,52.61
2023-04-22T05:14:36.786Z,52.52
2023-04-22T05:17:04.655Z,52.53
2023-04-22T05:19:32.568Z,52.68
2023-04-22T05:22:00.602Z,52.68
2023-04-22T05:24:28.468Z,52.71
2023-04-22T05:26:58.493Z,52.52
2023-04-22T05:29:26.445Z,52.51
2023-04-22T05:31:54.409Z,52.50
2023-04-22T05:34:22.388Z,52.31
2023-04-22T05:36:50.260Z,52.37
2023-04-22T05:39:18.180Z,52.24
2023-04-22T05:41:47.117Z,52.27
2023-04-22T05:44:17.644Z,52.32
2023-04-22T05:46:45.571Z,52.37
2023-04-22T05:49:13.467Z,52.23
2023-04-22T05:51:41.337Z,52.28
2023-04-22T05:54:09.268Z,52.04
2023-04-22T05:56:37.189Z,52.25
2023-04-22T05:59:05.063Z,52.30
2023-04-22T06:01:34.276Z,52.20
2023-04-22T06:04:02.320Z,52.27
2023-04-22T06:06:31.666Z,52.09
2023-04-22T06:08:59.668Z,52.04
2023-04-22T06:11:28.197Z,52.14
2023-04-22T06:13:56.090Z,52.10
2023-04-22T06:16:24.112Z,52.14
2023-04-22T06:18:53.393Z,52.03
2023-04-22T06:21:21.434Z,52.11
2023-04-22T06:23:49.291Z,52.05
2023-04-22T06:26:17.162Z,52.17
2023-04-22T06:28:45.071Z,52.15
2023-04-22T06:31:13.026Z,52.33
2023-04-22T06:33:40.971Z,52.25
2023-04-22T06:36:10.686Z,52.21
2023-04-22T06:38:38.525Z,52.31
2023-04-22T06:41:06.568Z,52.47
2023-04-22T06:43:34.417Z,52.41
2023-04-22T06:46:02.399Z,52.40
2023-04-22T06:48:30.305Z,52.50
2023-04-22T06:50:58.184Z,52.45
2023-04-22T06:53:27.452Z,52.49
2023-04-22T06:55:55.930Z,52.67
2023-04-22T06:58:23.829Z,52.61
2023-04-22T07:00:51.712Z,52.82
2023-04-22T07:03:19.745Z,52.77
2023-04-22T07:05:48.658Z,52.86
2023-04-22T07:08:16.580Z,52.96
2023-04-22T07:10:45.930Z,53.05
2023-04-22T07:13:13.817Z,53.21
2023-04-22T07:15:41.712Z,53.06
2023-04-22T07:18:09.731Z,53.19
2023-04-22T07:20:37.556Z,53.09
2023-04-22T07:23:05.505Z,53.05
2023-04-22T07:25:33.386Z,53.02
2023-04-22T07:28:02.725Z,53.19
2023-04-22T07:30:30.824Z,53.16
2023-04-22T07:32:58.766Z,53.10
2023-04-22T07:35:28.582Z,53.03
2023-04-22T07:37:56.494Z,52.93
2023-04-22T07:40:24.350Z,52.84
2023-04-22T07:42:52.409Z,52.52
2023-04-22T07:45:21.684Z,52.46
2023-04-22T07:47:49.604Z,52.50
2023-04-22T07:50:17.508Z,52.43
2023-04-22T07:52:45.419Z,52.32
2023-04-22T07:55:13.387Z,52.27
2023-04-22T07:57:41.365Z,52.10
2023-04-22T08:00:10.156Z,51.91
2023-04-22T08:02:39.559Z,51.94
2023-04-22T08:05:08.554Z,51.83
2023-04-22T08:07:36.457Z,51.73
2023-04-22T08:10:05.007Z,51.58
2023-04-22T08:12:32.967Z,51.53
2023-04-22T08:15:01.033Z,51.54
2023-04-22T08:17:28.954Z,51.34
2023-04-22T08:19:58.304Z,51.50
2023-04-22T08:22:27.623Z,51.28
2023-04-22T08:24:55.564Z,51.11
2023-04-22T08:27:23.602Z,51.23
2023-04-22T08:29:51.553Z,51.24
2023-04-22T08:32:20.180Z,51.03
2023-04-22T08:37:19.656Z,50.90
2023-04-22T08:39:47.596Z,50.50
2023-04-22T08:42:15.955Z,50.65
2023-04-22T08:44:43.962Z,50.19
2023-04-22T08:47:12.063Z,50.05
2023-04-22T08:49:40.073Z,49.80
2023-04-22T08:52:09.526Z,49.38
2023-04-22T08:54:38.811Z,49.09
2023-04-22T08:57:07.435Z,48.87
2023-04-22T08:59:35.531Z,48.59
2023-04-22T09:02:03.442Z,48.38
2023-04-22T09:04:31.558Z,48.36
2023-04-22T09:06:59.638Z,48.11
2023-04-22T09:09:27.569Z,47.92
2023-04-22T09:11:58.043Z,48.34
2023-04-22T09:14:26.231Z,48.23
2023-04-22T09:16:54.227Z,48.01
2023-04-22T09:19:24.708Z,48.26
2023-04-22T09:21:54.687Z,47.67
2023-04-22T09:24:22.656Z,47.71
2023-04-22T09:26:50.725Z,47.97
2023-04-22T09:29:20.441Z,48.12
2023-04-22T09:31:50.510Z,47.94
2023-04-22T09:34:18.409Z,47.87
2023-04-22T09:36:46.926Z,47.99
2023-04-22T09:39:14.934Z,48.13
2023-04-22T09:41:42.987Z,48.02
2023-04-22T09:44:12.377Z,48.41
2023-04-22T09:46:42.817Z,48.23
2023-04-22T09:49:10.704Z,48.39
2023-04-22T09:51:41.812Z,48.58
2023-04-22T09:54:10.546Z,48.72
2023-04-22T09:56:42.704Z,48.75
2023-04-22T09:59:10.572Z,48.79
2023-04-22T10:01:39.567Z,48.78
2023-04-22T10:04:09.933Z,48.94
2023-04-22T10:06:37.968Z,49.01
2023-04-22T10:09:08.296Z,49.26
2023-04-22T10:11:37.687Z,49.17
2023-04-22T10:14:05.679Z,49.32
2023-04-22T10:16:34.093Z,49.47
2023-04-22T10:19:03.390Z,49.55
2023-04-22T10:21:32.998Z,49.61
2023-04-22T10:24:01.229Z,49.51
2023-04-22T10:26:42.761Z,49.85
2023-04-22T10:29:10.911Z,49.72
2023-04-22T10:31:39.195Z,49.94
2023-04-22T10:34:11.012Z,49.80
2023-04-22T10:39:32.211Z,49.97
2023-04-22T10:42:15.306Z,49.91
2023-04-22T10:44:50.667Z,49.91
2023-04-22T10:47:28.713Z,50.14
2023-04-22T10:50:19.783Z,49.83
2023-04-22T10:52:49.292Z,50.03
2023-04-22T10:55:18.600Z,50.13
2023-04-22T10:57:47.482Z,50.02
2023-04-22T11:00:45.871Z,50.16
2023-04-22T11:03:20.814Z,49.96
2023-04-22T11:05:48.895Z,49.77
2023-04-22T11:08:24.677Z,49.84
2023-04-22T11:10:55.275Z,49.83
2023-04-22T11:13:23.217Z,49.58
2023-04-22T11:15:54.122Z,49.07
2023-04-22T11:18:22.842Z,49.63
2023-04-22T11:20:51.144Z,49.55
2023-04-22T11:23:24.004Z,49.42
2023-04-22T11:25:57.629Z,49.19
2023-04-22T11:28:25.621Z,49.15
2023-04-22T11:30:53.778Z,49.06
2023-04-22T11:33:21.791Z,48.99
2023-04-22T11:35:50.580Z,49.01
2023-04-22T11:38:18.481Z,49.07
2023-04-22T11:40:47.497Z,49.10
2023-04-22T11:43:18.669Z,49.09
2023-04-22T11:45:46.791Z,49.33
2023-04-22T11:48:15.627Z,49.30
2023-04-22T11:50:44.253Z,49.42
2023-04-22T11:53:16.111Z,49.10
2023-04-22T11:55:44.532Z,49.46
2023-04-22T11:58:13.458Z,49.28
2023-04-22T12:00:43.545Z,49.51
2023-04-22T12:03:15.392Z,49.56
2023-04-22T12:05:44.387Z,49.22
2023-04-22T12:08:13.028Z,49.35
2023-04-22T12:10:44.525Z,49.45
2023-04-22T12:13:18.451Z,49.42
2023-04-22T12:15:47.738Z,49.68
2023-04-22T12:18:16.092Z,49.91
2023-04-22T12:20:46.916Z,49.91
2023-04-22T12:23:15.631Z,49.66
2023-04-22T12:25:43.623Z,49.87
2023-04-22T12:28:11.785Z,49.92
2023-04-22T12:30:39.670Z,50.29
2023-04-22T12:33:09.584Z,50.31
2023-04-22T12:35:37.687Z,50.15
2023-04-22T12:38:05.646Z,50.40
2023-04-22T12:40:33.652Z,50.51
2023-04-22T12:43:03.531Z,50.74
2023-04-22T12:45:31.412Z,50.98
2023-04-22T12:47:59.537Z,50.73
2023-04-22T12:50:28.978Z,51.14
2023-04-22T12:52:56.890Z,51.69
2023-04-22T12:55:24.833Z,51.70
2023-04-22T12:57:52.694Z,51.87
2023-04-22T13:00:20.713Z,52.04
2023-04-22T13:02:49.324Z,52.40
2023-04-22T13:05:17.463Z,52.47
2023-04-22T13:07:50.731Z,52.15
2023-04-22T13:10:28.572Z,52.21
2023-04-22T13:13:06.461Z,52.30
2023-04-22T13:15:43.719Z,51.73
2023-04-22T13:18:11.706Z,51.54
2023-04-22T13:20:39.908Z,51.35
2023-04-22T13:23:09.758Z,51.48
2023-04-22T13:25:37.719Z,51.49
2023-04-22T13:28:05.830Z,51.42
2023-04-22T13:30:34.353Z,51.29
2023-04-22T13:33:02.552Z,51.34
2023-04-22T13:35:30.535Z,51.66
2023-04-22T13:37:58.485Z,51.42
2023-04-22T13:40:27.772Z,51.43
2023-04-22T13:42:55.728Z,51.48
2023-04-22T13:45:23.679Z,51.79
2023-04-22T13:47:52.270Z,51.62
2023-04-22T13:50:20.242Z,51.89
2023-04-22T13:52:48.476Z,51.76
2023-04-22T13:55:16.779Z,51.76
2023-04-22T13:57:46.463Z,51.76
2023-04-22T14:00:15.120Z,51.69
2023-04-22T14:02:43.098Z,52.00
2023-04-22T14:05:11.474Z,52.39
2023-04-22T14:07:39.344Z,52.41
2023-04-22T14:10:12.103Z,52.10
2023-04-22T14:12:40.083Z,52.37
2023-04-22T14:15:11.596Z,52.24
2023-04-22T14:17:39.635Z,52.36
2023-04-22T14:20:08.920Z,52.47
2023-04-22T14:22:36.954Z,52.23
2023-04-22T14:25:05.093Z,52.68
2023-04-22T14:27:33.323Z,52.38
2023-04-22T14:30:02.035Z,52.51
2023-04-22T14:32:31.411Z,52.74
2023-04-22T14:34:59.353Z,52.83
2023-04-22T14:37:27.212Z,53.05
2023-04-22T14:39:55.113Z,52.81
2023-04-22T14:42:23.229Z,53.09
2023-04-22T14:44:51.129Z,53.17
2023-04-22T14:47:19.012Z,53.27
2023-04-22T14:49:48.288Z,53.14
2023-04-22T14:52:16.232Z,53.38
2023-04-22T14:54:44.141Z,53.19
2023-04-22T14:57:12.423Z,53.51
2023-04-22T14:59:40.652Z,53.42
2023-04-22T15:02:09.363Z,53.51
2023-04-22T15:04:37.346Z,53.84
2023-04-22T15:07:07.579Z,53.83
2023-04-22T15:09:35.639Z,53.91
2023-04-22T15:12:05.118Z,53.67
2023-04-22T15:14:33.916Z,53.99
2023-04-22T15:17:01.891Z,53.75
2023-04-22T15:19:30.142Z,54.06
2023-04-22T15:21:58.042Z,53.90
2023-04-22T15:24:27.304Z,53.69
2023-04-22T15:26:55.359Z,53.77
2023-04-22T15:29:23.665Z,53.94
2023-04-22T15:31:53.845Z,54.33
2023-04-22T15:34:22.666Z,54.42
2023-04-22T15:36:50.618Z,54.71
2023-04-22T15:39:18.507Z,54.80
2023-04-22T15:41:47.779Z,54.97
2023-04-22T15:44:16.171Z,55.05
2023-04-22T15:46:44.434Z,54.85
2023-04-22T15:49:12.386Z,54.88
2023-04-22T15:51:40.299Z,54.97
2023-04-22T15:54:09.010Z,54.94
2023-04-22T15:56:36.925Z,55.12
2023-04-22T15:59:06.160Z,55.28
2023-04-22T16:01:34.147Z,54.86
2023-04-22T16:04:02.255Z,55.11
2023-04-22T16:06:30.904Z,54.95
2023-04-22T16:08:58.773Z,55.09
2023-04-22T16:11:26.722Z,55.19
2023-04-22T16:13:54.671Z,54.93
2023-04-22T16:16:25.247Z,55.23
2023-04-22T16:18:53.172Z,55.24
2023-04-22T16:21:21.092Z,55.24
2023-04-22T16:23:49.896Z,55.29
2023-04-22T16:26:18.026Z,55.35
2023-04-22T16:28:46.888Z,55.30
2023-04-22T16:31:14.920Z,55.45
2023-04-22T16:33:44.361Z,55.50
2023-04-22T16:36:12.338Z,55.58
2023-04-22T16:38:40.300Z,55.57
2023-04-22T16:41:09.131Z,55.53
2023-04-22T16:43:38.566Z,56.06
2023-04-22T16:46:08.350Z,56.02
2023-04-22T16:48:36.844Z,56.01
2023-04-22T16:51:06.258Z,56.37
2023-04-22T16:53:34.234Z,56.54
2023-04-22T16:56:02.162Z,56.56
2023-04-22T16:58:30.383Z,56.87
2023-04-22T17:00:58.302Z,57.22
2023-04-22T17:03:26.979Z,57.32
2023-04-22T17:05:55.660Z,57.16
2023-04-22T17:08:25.057Z,57.18
2023-04-22T17:10:52.966Z,57.20
2023-04-22T17:13:20.942Z,57.33
2023-04-22T17:15:48.864Z,57.59
2023-04-22T17:18:16.807Z,57.43
2023-04-22T17:20:44.737Z,57.80
2023-04-22T17:23:12.681Z,57.86
2023-04-22T17:25:41.968Z,57.86
2023-04-22T17:28:11.347Z,57.93
2023-04-22T17:30:39.437Z,58.01
2023-04-22T17:33:07.329Z,58.06
2023-04-22T17:35:35.262Z,58.03
2023-04-22T17:38:03.160Z,58.19
2023-04-22T17:40:31.039Z,58.05
2023-04-22T17:43:00.305Z,58.04
2023-04-22T17:45:28.330Z,58.27
2023-04-22T17:47:56.302Z,58.29
2023-04-22T17:50:24.610Z,58.74
2023-04-22T17:52:52.523Z,58.72
2023-04-22T17:55:20.658Z,58.84
2023-04-22T17:57:48.514Z,58.75
2023-04-22T18:00:19.029Z,58.80
2023-04-22T18:02:47.097Z,59.08
2023-04-22T18:05:15.177Z,58.93
2023-04-22T18:07:43.079Z,59.13
2023-04-22T18:10:12.023Z,59.18
2023-04-22T18:12:40.009Z,59.36
2023-04-22T18:15:08.698Z,59.26
2023-04-22T18:17:38.270Z,59.44
2023-04-22T18:20:17.155Z,59.64
2023-04-22T18:22:46.846Z,59.68
2023-04-22T18:25:14.742Z,59.56
2023-04-22T18:27:42.677Z,59.53
2023-04-22T18:30:11.130Z,59.54
2023-04-22T18:32:41.236Z,59.58
2023-04-22T18:35:09.764Z,59.58
2023-04-22T18:37:37.799Z,59.50
2023-04-22T18:40:07.102Z,59.64
2023-04-22T18:42:35.037Z,59.56
2023-04-22T18:45:04.544Z,59.75
2023-04-22T18:47:32.898Z,59.66
2023-04-22T18:50:02.288Z,59.77
2023-04-22T18:52:30.208Z,59.90
2023-04-22T18:54:58.140Z,59.69
2023-04-22T18:57:26.462Z,59.66
2023-04-22T18:59:55.040Z,59.64
2023-04-22T19:02:22.972Z,59.66
2023-04-22T19:04:51.019Z,59.61
2023-04-22T19:07:20.399Z,59.29
2023-04-22T19:09:48.353Z,59.47
2023-04-22T19:12:19.028Z,59.45
2023-04-22T19:14:48.334Z,59.36
2023-04-22T19:17:16.512Z,59.16
2023-04-22T19:19:45.455Z,59.15
2023-04-22T19:22:13.693Z,59.22
2023-04-22T19:24:43.064Z,59.10
2023-04-22T19:27:12.520Z,59.16
2023-04-22T19:29:41.550Z,59.24
2023-04-22T19:32:09.815Z,58.99
2023-04-22T19:34:37.947Z,58.83
2023-04-22T19:37:06.090Z,59.14
2023-04-22T19:39:33.990Z,58.88
2023-04-22T19:42:04.000Z,58.80
2023-04-22T19:44:31.981Z,58.72
2023-04-22T19:47:00.082Z,58.83
2023-04-22T19:49:31.077Z,58.81
2023-04-22T19:51:59.025Z,58.99
2023-04-22T19:54:30.175Z,59.01
2023-04-22T19:56:59.021Z,58.96
2023-04-22T19:59:31.085Z,59.04
2023-04-22T20:01:59.484Z,58.88
2023-04-22T20:04:28.191Z,58.84
2023-04-22T20:06:57.118Z,58.77
2023-04-22T20:09:25.033Z,58.72
2023-04-22T20:11:53.600Z,58.88
2023-04-22T20:14:21.714Z,58.79
2023-04-22T20:16:51.589Z,58.78
2023-04-22T20:19:20.226Z,58.83
2023-04-22T20:21:48.589Z,58.66
2023-04-22T20:24:19.485Z,58.55
2023-04-22T20:26:48.655Z,58.58
2023-04-22T20:29:17.198Z,58.43
2023-04-22T20:31:45.346Z,58.48
2023-04-22T20:34:14.797Z,58.74
2023-04-22T20:36:49.562Z,58.53
2023-04-22T20:39:17.511Z,58.71
2023-04-22T20:41:45.389Z,58.81
2023-04-22T20:44:14.195Z,58.96
2023-04-22T20:46:42.131Z,58.97
2023-04-22T20:49:10.048Z,58.95
2023-04-22T20:51:39.293Z,58.96
2023-04-22T20:54:14.694Z,58.84
2023-04-22T20:56:53.829Z,58.79
2023-04-22T20:59:21.756Z,58.97
2023-04-22T21:01:49.676Z,59.05
2023-04-22T21:04:17.656Z,59.00
2023-04-22T21:06:47.413Z,59.00
2023-04-22T21:09:15.376Z,59.15
2023-04-22T21:11:43.728Z,59.10
2023-04-22T21:14:12.017Z,59.11
2023-04-22T21:16:41.162Z,59.11
2023-04-22T21:19:09.211Z,58.96
2023-04-22T21:21:37.169Z,58.87
2023-04-22T21:24:07.479Z,58.71
2023-04-22T21:26:35.355Z,58.77
2023-04-22T21:29:03.678Z,58.76
2023-04-22T21:31:31.640Z,58.78
2023-04-22T21:34:00.521Z,59.03
2023-04-22T21:36:28.412Z,58.96
2023-04-22T21:38:56.829Z,58.90
2023-04-22T21:41:26.341Z,58.83
2023-04-22T21:43:54.229Z,58.84
2023-04-22T21:46:24.353Z,58.74
2023-04-22T21:48:52.305Z,58.68
2023-04-22T21:51:20.237Z,58.58
2023-04-22T21:53:48.205Z,58.57
2023-04-22T21:56:16.089Z,58.53
2023-04-22T21:58:45.359Z,58.61
2023-04-22T22:01:13.323Z,58.45
2023-04-22T22:03:41.462Z,58.59
2023-04-22T22:06:09.580Z,58.49
2023-04-22T22:08:37.511Z,58.48
2023-04-22T22:11:07.043Z,58.63
2023-04-22T22:13:36.058Z,58.67
2023-04-22T22:16:05.448Z,58.65
2023-04-22T22:18:33.503Z,58.48
2023-04-22T22:21:01.381Z,58.80
2023-04-22T22:23:29.255Z,58.61
2023-04-22T22:25:57.117Z,58.57
2023-04-22T22:28:25.011Z,58.65
2023-04-22T22:30:52.873Z,58.67
2023-04-22T22:33:22.101Z,58.84
2023-04-22T22:35:49.938Z,58.97
2023-04-22T22:38:17.907Z,58.76
2023-04-22T22:40:46.272Z,58.88
2023-04-22T22:43:14.400Z,58.75
2023-04-22T22:45:42.321Z,58.88
2023-04-22T22:48:10.315Z,58.82
2023-04-22T22:50:40.046Z,59.10
2023-04-22T22:53:08.066Z,58.87
2023-04-22T22:55:36.072Z,59.07
2023-04-22T22:58:03.916Z,58.99
2023-04-22T23:00:31.814Z,59.01
2023-04-22T23:02:59.867Z,58.91
2023-04-22T23:05:27.837Z,59.03
2023-04-22T23:07:57.071Z,58.98
2023-04-22T23:10:24.998Z,58.91
2023-04-22T23:12:52.883Z,58.78
2023-04-22T23:15:20.942Z,58.82
2023-04-22T23:17:49.785Z,58.85
2023-04-22T23:20:18.195Z,58.89
2023-04-22T23:22:46.074Z,58.92
2023-04-22T23:25:17.376Z,58.95
2023-04-22T23:27:45.419Z,59.04
2023-04-22T23:30:14.136Z,59.10
2023-04-22T23:32:42.241Z,59.22
2023-04-22T23:35:11.595Z,59.32
2023-04-22T23:37:39.662Z,59.23
2023-04-22T23:40:09.237Z,59.17
2023-04-22T23:42:40.893Z,59.15
2023-04-22T23:45:10.130Z,59.21
2023-04-22T23:47:38.097Z,59.42
2023-04-22T23:50:06.826Z,59.37
2023-04-22T23:52:41.145Z,59.49
2023-04-22T23:55:10.478Z,59.37
2023-04-22T23:57:40.672Z,59.38
